sensor_id;sensor_type;location;lat;lon;timestamp;P1;durP1;ratioP1;P2;durP2;ratioP2
29352;SDS011;16344;50.364;8.944;2023-04-06T00:00:48;11.52;;;5.55;;
29352;SDS011;16344;50.364;8.944;2023-04-06T00:03:14;17.08;;;5.85;;
29352;SDS011;16344;50.364;8.944;2023-04-06T00:05:40;10.88;;;5.00;;
29352;SDS011;16344;50.364;8.944;2023-04-06T00:08:06;13.45;;;4.63;;
29352;SDS011;16344;50.364;8.944;2023-04-06T00:10:31;14.63;;;5.57;;
29352;SDS011;16344;50.364;8.944;2023-04-06T00:12:58;12.70;;;5.30;;
29352;SDS011;16344;50.364;8.944;2023-04-06T00:15:24;12.18;;;5.28;;
29352;SDS011;16344;50.364;8.944;2023-04-06T00:17:50;10.88;;;5.40;;
29352;SDS011;16344;50.364;8.944;2023-04-06T00:20:16;10.73;;;5.18;;
29352;SDS011;16344;50.364;8.944;2023-04-06T00:22:43;12.63;;;6.03;;
29352;SDS011;16344;50.364;8.944;2023-04-06T00:25:08;13.32;;;5.70;;
29352;SDS011;16344;50.364;8.944;2023-04-06T00:27:35;14.27;;;5.35;;
29352;SDS011;16344;50.364;8.944;2023-04-06T00:30:01;11.60;;;6.05;;
29352;SDS011;16344;50.364;8.944;2023-04-06T00:32:28;16.75;;;5.82;;
29352;SDS011;16344;50.364;8.944;2023-04-06T00:34:53;12.13;;;5.63;;
29352;SDS011;16344;50.364;8.944;2023-04-06T00:37:19;12.02;;;5.18;;
29352;SDS011;16344;50.364;8.944;2023-04-06T00:39:44;14.35;;;6.07;;
29352;SDS011;16344;50.364;8.944;2023-04-06T00:42:13;15.07;;;5.88;;
29352;SDS011;16344;50.364;8.944;2023-04-06T00:44:40;11.93;;;5.47;;
29352;SDS011;16344;50.364;8.944;2023-04-06T00:47:05;14.57;;;5.50;;
29352;SDS011;16344;50.364;8.944;2023-04-06T00:49:32;10.63;;;5.63;;
29352;SDS011;16344;50.364;8.944;2023-04-06T00:51:58;23.70;;;6.40;;
29352;SDS011;16344;50.364;8.944;2023-04-06T00:54:23;9.82;;;5.35;;
29352;SDS011;16344;50.364;8.944;2023-04-06T00:56:49;11.15;;;5.97;;
29352;SDS011;16344;50.364;8.944;2023-04-06T00:59:15;14.23;;;5.75;;
29352;SDS011;16344;50.364;8.944;2023-04-06T01:01:41;22.95;;;6.50;;
29352;SDS011;16344;50.364;8.944;2023-04-06T01:04:06;14.73;;;6.03;;
29352;SDS011;16344;50.364;8.944;2023-04-06T01:06:32;16.83;;;5.38;;
29352;SDS011;16344;50.364;8.944;2023-04-06T01:08:57;14.88;;;5.85;;
29352;SDS011;16344;50.364;8.944;2023-04-06T01:11:23;11.70;;;5.78;;
29352;SDS011;16344;50.364;8.944;2023-04-06T01:13:48;15.30;;;6.03;;
29352;SDS011;16344;50.364;8.944;2023-04-06T01:16:14;15.57;;;6.90;;
29352;SDS011;16344;50.364;8.944;2023-04-06T01:18:40;18.70;;;6.47;;
29352;SDS011;16344;50.364;8.944;2023-04-06T01:21:07;12.32;;;6.22;;
29352;SDS011;16344;50.364;8.944;2023-04-06T01:23:33;11.05;;;5.88;;
29352;SDS011;16344;50.364;8.944;2023-04-06T01:25:59;14.00;;;6.20;;
29352;SDS011;16344;50.364;8.944;2023-04-06T01:28:25;12.63;;;5.75;;
29352;SDS011;16344;50.364;8.944;2023-04-06T01:30:50;12.95;;;5.90;;
29352;SDS011;16344;50.364;8.944;2023-04-06T01:33:16;15.38;;;7.45;;
29352;SDS011;16344;50.364;8.944;2023-04-06T01:35:41;15.98;;;6.40;;
29352;SDS011;16344;50.364;8.944;2023-04-06T01:38:07;16.98;;;6.88;;
29352;SDS011;16344;50.364;8.944;2023-04-06T01:40:33;14.48;;;6.28;;
29352;SDS011;16344;50.364;8.944;2023-04-06T01:42:58;16.92;;;6.22;;
29352;SDS011;16344;50.364;8.944;2023-04-06T01:45:24;14.35;;;5.95;;
29352;SDS011;16344;50.364;8.944;2023-04-06T01:47:50;14.55;;;6.93;;
29352;SDS011;16344;50.364;8.944;2023-04-06T01:50:15;16.15;;;6.28;;
29352;SDS011;16344;50.364;8.944;2023-04-06T01:52:41;17.88;;;6.18;;
29352;SDS011;16344;50.364;8.944;2023-04-06T01:55:06;14.77;;;6.28;;
29352;SDS011;16344;50.364;8.944;2023-04-06T01:57:32;15.50;;;6.65;;
29352;SDS011;16344;50.364;8.944;2023-04-06T01:59:58;19.02;;;6.43;;
29352;SDS011;16344;50.364;8.944;2023-04-06T02:02:23;26.67;;;6.32;;
29352;SDS011;16344;50.364;8.944;2023-04-06T02:04:49;12.55;;;6.05;;
29352;SDS011;16344;50.364;8.944;2023-04-06T02:07:15;16.02;;;5.80;;
29352;SDS011;16344;50.364;8.944;2023-04-06T02:09:41;10.00;;;5.78;;
29352;SDS011;16344;50.364;8.944;2023-04-06T02:12:06;11.38;;;5.65;;
29352;SDS011;16344;50.364;8.944;2023-04-06T02:14:32;15.38;;;6.22;;
29352;SDS011;16344;50.364;8.944;2023-04-06T02:16:58;17.25;;;6.55;;
29352;SDS011;16344;50.364;8.944;2023-04-06T02:19:23;21.55;;;6.57;;
29352;SDS011;16344;50.364;8.944;2023-04-06T02:21:49;16.17;;;6.22;;
29352;SDS011;16344;50.364;8.944;2023-04-06T02:24:14;19.08;;;5.93;;
29352;SDS011;16344;50.364;8.944;2023-04-06T02:26:40;9.82;;;5.57;;
29352;SDS011;16344;50.364;8.944;2023-04-06T02:29:05;10.20;;;5.93;;
29352;SDS011;16344;50.364;8.944;2023-04-06T02:31:32;15.68;;;6.15;;
29352;SDS011;16344;50.364;8.944;2023-04-06T02:33:57;14.23;;;6.03;;
29352;SDS011;16344;50.364;8.944;2023-04-06T02:36:23;13.77;;;5.95;;
29352;SDS011;16344;50.364;8.944;2023-04-06T02:38:48;13.15;;;6.88;;
29352;SDS011;16344;50.364;8.944;2023-04-06T02:41:13;10.70;;;5.90;;
29352;SDS011;16344;50.364;8.944;2023-04-06T02:43:39;13.65;;;6.07;;
29352;SDS011;16344;50.364;8.944;2023-04-06T02:46:05;11.65;;;6.35;;
29352;SDS011;16344;50.364;8.944;2023-04-06T02:48:30;12.88;;;5.80;;
29352;SDS011;16344;50.364;8.944;2023-04-06T02:50:56;17.20;;;6.82;;
29352;SDS011;16344;50.364;8.944;2023-04-06T02:53:21;10.07;;;5.80;;
29352;SDS011;16344;50.364;8.944;2023-04-06T02:55:47;14.25;;;6.43;;
29352;SDS011;16344;50.364;8.944;2023-04-06T02:58:12;16.65;;;7.13;;
29352;SDS011;16344;50.364;8.944;2023-04-06T03:00:38;14.05;;;5.95;;
29352;SDS011;16344;50.364;8.944;2023-04-06T03:03:03;23.17;;;6.38;;
29352;SDS011;16344;50.364;8.944;2023-04-06T03:05:29;11.52;;;5.45;;
29352;SDS011;16344;50.364;8.944;2023-04-06T03:07:55;17.25;;;6.60;;
29352;SDS011;16344;50.364;8.944;2023-04-06T03:10:21;13.18;;;6.07;;
29352;SDS011;16344;50.364;8.944;2023-04-06T03:12:46;13.73;;;6.88;;
29352;SDS011;16344;50.364;8.944;2023-04-06T03:15:12;14.93;;;6.57;;
29352;SDS011;16344;50.364;8.944;2023-04-06T03:17:38;15.25;;;6.95;;
29352;SDS011;16344;50.364;8.944;2023-04-06T03:20:04;22.33;;;7.57;;
29352;SDS011;16344;50.364;8.944;2023-04-06T03:22:30;14.95;;;7.40;;
29352;SDS011;16344;50.364;8.944;2023-04-06T03:24:55;17.27;;;7.72;;
29352;SDS011;16344;50.364;8.944;2023-04-06T03:27:21;15.48;;;7.07;;
29352;SDS011;16344;50.364;8.944;2023-04-06T03:29:46;16.02;;;6.55;;
29352;SDS011;16344;50.364;8.944;2023-04-06T03:32:12;13.60;;;7.53;;
29352;SDS011;16344;50.364;8.944;2023-04-06T03:34:37;16.65;;;7.60;;
29352;SDS011;16344;50.364;8.944;2023-04-06T03:37:03;17.77;;;7.25;;
29352;SDS011;16344;50.364;8.944;2023-04-06T03:39:29;17.58;;;7.60;;
29352;SDS011;16344;50.364;8.944;2023-04-06T03:41:55;14.73;;;7.70;;
29352;SDS011;16344;50.364;8.944;2023-04-06T03:44:21;17.10;;;7.72;;
29352;SDS011;16344;50.364;8.944;2023-04-06T03:46:46;25.42;;;8.57;;
29352;SDS011;16344;50.364;8.944;2023-04-06T03:49:11;29.88;;;9.65;;
29352;SDS011;16344;50.364;8.944;2023-04-06T03:51:37;34.78;;;9.25;;
29352;SDS011;16344;50.364;8.944;2023-04-06T03:54:03;29.60;;;9.82;;
29352;SDS011;16344;50.364;8.944;2023-04-06T03:56:28;26.70;;;8.35;;
29352;SDS011;16344;50.364;8.944;2023-04-06T03:58:54;32.45;;;9.48;;
29352;SDS011;16344;50.364;8.944;2023-04-06T04:01:19;22.38;;;9.57;;
29352;SDS011;16344;50.364;8.944;2023-04-06T04:03:45;23.35;;;8.75;;
29352;SDS011;16344;50.364;8.944;2023-04-06T04:06:11;20.33;;;8.82;;
29352;SDS011;16344;50.364;8.944;2023-04-06T04:08:36;17.48;;;8.63;;
29352;SDS011;16344;50.364;8.944;2023-04-06T04:11:02;17.08;;;6.45;;
29352;SDS011;16344;50.364;8.944;2023-04-06T04:13:27;19.85;;;8.10;;
29352;SDS011;16344;50.364;8.944;2023-04-06T04:15:53;18.48;;;7.00;;
29352;SDS011;16344;50.364;8.944;2023-04-06T04:18:18;16.38;;;6.75;;
29352;SDS011;16344;50.364;8.944;2023-04-06T04:20:44;13.93;;;7.38;;
29352;SDS011;16344;50.364;8.944;2023-04-06T04:23:10;16.90;;;6.20;;
29352;SDS011;16344;50.364;8.944;2023-04-06T04:25:35;18.77;;;7.18;;
29352;SDS011;16344;50.364;8.944;2023-04-06T04:28:01;17.33;;;7.65;;
29352;SDS011;16344;50.364;8.944;2023-04-06T04:30:27;16.48;;;7.60;;
29352;SDS011;16344;50.364;8.944;2023-04-06T04:32:52;18.50;;;7.10;;
29352;SDS011;16344;50.364;8.944;2023-04-06T04:35:18;12.70;;;5.70;;
29352;SDS011;16344;50.364;8.944;2023-04-06T04:37:43;21.65;;;8.75;;
29352;SDS011;16344;50.364;8.944;2023-04-06T04:40:09;14.43;;;7.57;;
29352;SDS011;16344;50.364;8.944;2023-04-06T04:42:35;16.98;;;8.25;;
29352;SDS011;16344;50.364;8.944;2023-04-06T04:45:01;16.73;;;8.45;;
29352;SDS011;16344;50.364;8.944;2023-04-06T04:47:26;16.20;;;7.47;;
29352;SDS011;16344;50.364;8.944;2023-04-06T04:49:52;16.65;;;7.72;;
29352;SDS011;16344;50.364;8.944;2023-04-06T04:52:17;24.65;;;9.80;;
29352;SDS011;16344;50.364;8.944;2023-04-06T04:54:43;20.10;;;8.07;;
29352;SDS011;16344;50.364;8.944;2023-04-06T04:57:08;17.88;;;7.78;;
29352;SDS011;16344;50.364;8.944;2023-04-06T04:59:34;17.23;;;7.00;;
29352;SDS011;16344;50.364;8.944;2023-04-06T05:02:00;26.35;;;8.43;;
29352;SDS011;16344;50.364;8.944;2023-04-06T05:04:26;17.15;;;7.68;;
29352;SDS011;16344;50.364;8.944;2023-04-06T05:07:01;15.85;;;7.35;;
29352;SDS011;16344;50.364;8.944;2023-04-06T05:09:29;16.75;;;6.80;;
29352;SDS011;16344;50.364;8.944;2023-04-06T05:11:55;19.20;;;8.00;;
29352;SDS011;16344;50.364;8.944;2023-04-06T05:14:21;14.65;;;7.38;;
29352;SDS011;16344;50.364;8.944;2023-04-06T05:16:46;18.50;;;6.75;;
29352;SDS011;16344;50.364;8.944;2023-04-06T05:19:12;15.57;;;7.55;;
29352;SDS011;16344;50.364;8.944;2023-04-06T05:21:37;20.42;;;7.28;;
29352;SDS011;16344;50.364;8.944;2023-04-06T05:24:03;15.40;;;7.45;;
29352;SDS011;16344;50.364;8.944;2023-04-06T05:26:28;14.48;;;7.53;;
29352;SDS011;16344;50.364;8.944;2023-04-06T05:28:54;12.60;;;7.22;;
29352;SDS011;16344;50.364;8.944;2023-04-06T05:31:20;16.95;;;7.35;;
29352;SDS011;16344;50.364;8.944;2023-04-06T05:33:45;18.48;;;7.10;;
29352;SDS011;16344;50.364;8.944;2023-04-06T05:36:11;14.05;;;7.22;;
29352;SDS011;16344;50.364;8.944;2023-04-06T05:38:36;12.85;;;6.93;;
29352;SDS011;16344;50.364;8.944;2023-04-06T05:41:02;16.70;;;6.55;;
29352;SDS011;16344;50.364;8.944;2023-04-06T05:43:28;20.30;;;7.45;;
29352;SDS011;16344;50.364;8.944;2023-04-06T05:45:53;15.25;;;7.20;;
29352;SDS011;16344;50.364;8.944;2023-04-06T05:48:19;14.10;;;7.22;;
29352;SDS011;16344;50.364;8.944;2023-04-06T05:50:48;17.10;;;7.63;;
29352;SDS011;16344;50.364;8.944;2023-04-06T05:53:15;14.93;;;6.97;;
29352;SDS011;16344;50.364;8.944;2023-04-06T05:55:41;15.63;;;6.78;;
29352;SDS011;16344;50.364;8.944;2023-04-06T05:58:06;14.13;;;6.30;;
29352;SDS011;16344;50.364;8.944;2023-04-06T06:00:31;16.80;;;6.88;;
29352;SDS011;16344;50.364;8.944;2023-04-06T06:02:57;10.07;;;5.80;;
29352;SDS011;16344;50.364;8.944;2023-04-06T06:05:23;13.80;;;5.97;;
29352;SDS011;16344;50.364;8.944;2023-04-06T06:07:48;11.80;;;6.25;;
29352;SDS011;16344;50.364;8.944;2023-04-06T06:10:14;16.00;;;6.10;;
29352;SDS011;16344;50.364;8.944;2023-04-06T06:12:40;16.65;;;6.40;;
29352;SDS011;16344;50.364;8.944;2023-04-06T06:15:05;20.42;;;7.30;;
29352;SDS011;16344;50.364;8.944;2023-04-06T06:17:31;14.05;;;5.80;;
29352;SDS011;16344;50.364;8.944;2023-04-06T06:19:57;15.88;;;6.10;;
29352;SDS011;16344;50.364;8.944;2023-04-06T06:22:22;15.25;;;7.45;;
29352;SDS011;16344;50.364;8.944;2023-04-06T06:24:48;20.58;;;7.13;;
29352;SDS011;16344;50.364;8.944;2023-04-06T06:27:14;14.30;;;6.80;;
29352;SDS011;16344;50.364;8.944;2023-04-06T06:29:40;17.92;;;6.35;;
29352;SDS011;16344;50.364;8.944;2023-04-06T06:32:06;14.73;;;6.60;;
29352;SDS011;16344;50.364;8.944;2023-04-06T06:34:33;12.23;;;7.13;;
29352;SDS011;16344;50.364;8.944;2023-04-06T06:36:59;17.85;;;7.93;;
29352;SDS011;16344;50.364;8.944;2023-04-06T06:39:25;11.88;;;6.95;;
29352;SDS011;16344;50.364;8.944;2023-04-06T06:41:51;16.05;;;8.73;;
29352;SDS011;16344;50.364;8.944;2023-04-06T06:44:16;15.13;;;7.75;;
29352;SDS011;16344;50.364;8.944;2023-04-06T06:46:42;14.27;;;8.10;;
29352;SDS011;16344;50.364;8.944;2023-04-06T06:49:08;20.58;;;8.52;;
29352;SDS011;16344;50.364;8.944;2023-04-06T06:51:36;16.13;;;8.20;;
29352;SDS011;16344;50.364;8.944;2023-04-06T06:54:01;18.42;;;8.05;;
29352;SDS011;16344;50.364;8.944;2023-04-06T06:56:27;12.70;;;6.45;;
29352;SDS011;16344;50.364;8.944;2023-04-06T06:58:52;16.30;;;7.13;;
29352;SDS011;16344;50.364;8.944;2023-04-06T07:01:18;14.73;;;6.88;;
29352;SDS011;16344;50.364;8.944;2023-04-06T07:03:43;24.50;;;8.40;;
29352;SDS011;16344;50.364;8.944;2023-04-06T07:06:09;13.50;;;7.05;;
29352;SDS011;16344;50.364;8.944;2023-04-06T07:08:34;14.45;;;7.80;;
29352;SDS011;16344;50.364;8.944;2023-04-06T07:11:00;17.65;;;8.32;;
29352;SDS011;16344;50.364;8.944;2023-04-06T07:13:25;20.85;;;7.95;;
29352;SDS011;16344;50.364;8.944;2023-04-06T07:15:52;19.27;;;7.65;;
29352;SDS011;16344;50.364;8.944;2023-04-06T07:18:18;15.45;;;7.72;;
29352;SDS011;16344;50.364;8.944;2023-04-06T07:20:44;19.65;;;7.93;;
29352;SDS011;16344;50.364;8.944;2023-04-06T07:23:10;16.38;;;7.90;;
29352;SDS011;16344;50.364;8.944;2023-04-06T07:25:36;15.50;;;7.70;;
29352;SDS011;16344;50.364;8.944;2023-04-06T07:28:02;16.85;;;7.60;;
29352;SDS011;16344;50.364;8.944;2023-04-06T07:30:28;11.90;;;6.45;;
29352;SDS011;16344;50.364;8.944;2023-04-06T07:32:54;17.52;;;7.18;;
29352;SDS011;16344;50.364;8.944;2023-04-06T07:35:24;10.98;;;5.93;;
29352;SDS011;16344;50.364;8.944;2023-04-06T07:37:51;10.55;;;6.28;;
29352;SDS011;16344;50.364;8.944;2023-04-06T07:40:17;14.38;;;7.10;;
29352;SDS011;16344;50.364;8.944;2023-04-06T07:42:43;11.93;;;6.30;;
29352;SDS011;16344;50.364;8.944;2023-04-06T07:45:08;15.32;;;6.28;;
29352;SDS011;16344;50.364;8.944;2023-04-06T07:47:34;15.55;;;7.03;;
29352;SDS011;16344;50.364;8.944;2023-04-06T07:50:00;15.00;;;7.43;;
29352;SDS011;16344;50.364;8.944;2023-04-06T07:52:26;15.50;;;7.53;;
29352;SDS011;16344;50.364;8.944;2023-04-06T07:54:51;18.33;;;7.53;;
29352;SDS011;16344;50.364;8.944;2023-04-06T07:57:17;12.75;;;6.97;;
29352;SDS011;16344;50.364;8.944;2023-04-06T07:59:43;18.33;;;7.70;;
29352;SDS011;16344;50.364;8.944;2023-04-06T08:02:09;12.77;;;7.57;;
29352;SDS011;16344;50.364;8.944;2023-04-06T08:04:35;10.90;;;6.85;;
29352;SDS011;16344;50.364;8.944;2023-04-06T08:07:00;12.23;;;6.85;;
29352;SDS011;16344;50.364;8.944;2023-04-06T08:09:26;19.88;;;7.93;;
29352;SDS011;16344;50.364;8.944;2023-04-06T08:11:52;17.65;;;7.45;;
29352;SDS011;16344;50.364;8.944;2023-04-06T08:14:18;29.48;;;8.38;;
29352;SDS011;16344;50.364;8.944;2023-04-06T08:16:43;17.45;;;7.57;;
29352;SDS011;16344;50.364;8.944;2023-04-06T08:19:09;18.25;;;7.57;;
29352;SDS011;16344;50.364;8.944;2023-04-06T08:21:35;14.68;;;7.88;;
29352;SDS011;16344;50.364;8.944;2023-04-06T08:24:01;16.95;;;8.15;;
29352;SDS011;16344;50.364;8.944;2023-04-06T08:26:26;12.55;;;7.50;;
29352;SDS011;16344;50.364;8.944;2023-04-06T08:28:53;13.75;;;7.32;;
29352;SDS011;16344;50.364;8.944;2023-04-06T08:31:18;13.40;;;7.05;;
29352;SDS011;16344;50.364;8.944;2023-04-06T08:33:44;22.92;;;7.72;;
29352;SDS011;16344;50.364;8.944;2023-04-06T08:36:13;16.42;;;7.97;;
29352;SDS011;16344;50.364;8.944;2023-04-06T08:38:40;13.60;;;7.68;;
29352;SDS011;16344;50.364;8.944;2023-04-06T08:41:06;19.23;;;8.13;;
29352;SDS011;16344;50.364;8.944;2023-04-06T08:43:33;16.35;;;8.38;;
29352;SDS011;16344;50.364;8.944;2023-04-06T08:46:06;19.00;;;7.80;;
29352;SDS011;16344;50.364;8.944;2023-04-06T08:48:33;14.27;;;7.88;;
29352;SDS011;16344;50.364;8.944;2023-04-06T08:51:00;23.85;;;8.27;;
29352;SDS011;16344;50.364;8.944;2023-04-06T08:53:27;18.25;;;8.27;;
29352;SDS011;16344;50.364;8.944;2023-04-06T08:55:53;19.33;;;7.85;;
29352;SDS011;16344;50.364;8.944;2023-04-06T08:58:21;19.77;;;8.05;;
29352;SDS011;16344;50.364;8.944;2023-04-06T09:00:47;16.15;;;8.15;;
29352;SDS011;16344;50.364;8.944;2023-04-06T09:03:14;15.60;;;8.93;;
29352;SDS011;16344;50.364;8.944;2023-04-06T09:05:40;17.42;;;9.02;;
29352;SDS011;16344;50.364;8.944;2023-04-06T09:08:06;19.13;;;8.90;;
29352;SDS011;16344;50.364;8.944;2023-04-06T09:10:32;19.20;;;9.45;;
29352;SDS011;16344;50.364;8.944;2023-04-06T09:13:07;17.90;;;9.15;;
29352;SDS011;16344;50.364;8.944;2023-04-06T09:15:33;19.48;;;9.27;;
29352;SDS011;16344;50.364;8.944;2023-04-06T09:17:58;25.73;;;9.82;;
29352;SDS011;16344;50.364;8.944;2023-04-06T09:20:24;16.42;;;8.68;;
29352;SDS011;16344;50.364;8.944;2023-04-06T09:22:52;16.17;;;9.48;;
29352;SDS011;16344;50.364;8.944;2023-04-06T09:25:19;25.15;;;10.55;;
29352;SDS011;16344;50.364;8.944;2023-04-06T09:27:45;22.83;;;9.15;;
29352;SDS011;16344;50.364;8.944;2023-04-06T09:30:11;19.13;;;9.15;;
29352;SDS011;16344;50.364;8.944;2023-04-06T09:32:48;26.65;;;9.23;;
29352;SDS011;16344;50.364;8.944;2023-04-06T09:35:15;17.55;;;9.30;;
29352;SDS011;16344;50.364;8.944;2023-04-06T09:37:42;22.60;;;9.13;;
29352;SDS011;16344;50.364;8.944;2023-04-06T09:40:08;20.38;;;9.88;;
29352;SDS011;16344;50.364;8.944;2023-04-06T09:42:34;19.55;;;9.05;;
29352;SDS011;16344;50.364;8.944;2023-04-06T09:45:00;20.58;;;9.48;;
29352;SDS011;16344;50.364;8.944;2023-04-06T09:47:27;21.73;;;9.93;;
29352;SDS011;16344;50.364;8.944;2023-04-06T09:49:58;28.75;;;10.35;;
29352;SDS011;16344;50.364;8.944;2023-04-06T09:52:26;21.92;;;9.95;;
29352;SDS011;16344;50.364;8.944;2023-04-06T09:54:55;29.17;;;10.77;;
29352;SDS011;16344;50.364;8.944;2023-04-06T09:57:49;17.77;;;9.85;;
29352;SDS011;16344;50.364;8.944;2023-04-06T10:00:20;20.70;;;10.32;;
29352;SDS011;16344;50.364;8.944;2023-04-06T10:02:55;17.67;;;9.75;;
29352;SDS011;16344;50.364;8.944;2023-04-06T10:10:36;25.80;;;10.88;;
29352;SDS011;16344;50.364;8.944;2023-04-06T10:13:02;22.38;;;11.38;;
29352;SDS011;16344;50.364;8.944;2023-04-06T10:15:29;20.55;;;10.32;;
29352;SDS011;16344;50.364;8.944;2023-04-06T10:17:56;24.38;;;10.75;;
29352;SDS011;16344;50.364;8.944;2023-04-06T10:23:05;19.17;;;10.30;;
29352;SDS011;16344;50.364;8.944;2023-04-06T10:25:34;21.60;;;9.98;;
29352;SDS011;16344;50.364;8.944;2023-04-06T10:28:06;20.83;;;10.32;;
29352;SDS011;16344;50.364;8.944;2023-04-06T10:32:59;28.92;;;12.25;;
29352;SDS011;16344;50.364;8.944;2023-04-06T10:35:25;23.90;;;12.05;;
29352;SDS011;16344;50.364;8.944;2023-04-06T10:38:03;22.10;;;10.95;;
29352;SDS011;16344;50.364;8.944;2023-04-06T10:40:29;24.35;;;11.38;;
29352;SDS011;16344;50.364;8.944;2023-04-06T10:43:06;25.05;;;12.82;;
29352;SDS011;16344;50.364;8.944;2023-04-06T10:45:32;28.38;;;10.90;;
29352;SDS011;16344;50.364;8.944;2023-04-06T10:47:59;21.40;;;11.05;;
29352;SDS011;16344;50.364;8.944;2023-04-06T10:50:24;41.95;;;12.85;;
29352;SDS011;16344;50.364;8.944;2023-04-06T10:53:00;23.30;;;11.63;;
29352;SDS011;16344;50.364;8.944;2023-04-06T10:55:29;24.25;;;11.15;;
29352;SDS011;16344;50.364;8.944;2023-04-06T10:57:56;26.35;;;11.82;;
29352;SDS011;16344;50.364;8.944;2023-04-06T11:00:21;25.30;;;12.32;;
29352;SDS011;16344;50.364;8.944;2023-04-06T11:02:47;26.70;;;11.93;;
29352;SDS011;16344;50.364;8.944;2023-04-06T11:05:14;22.40;;;11.73;;
29352;SDS011;16344;50.364;8.944;2023-04-06T11:07:40;28.83;;;12.48;;
29352;SDS011;16344;50.364;8.944;2023-04-06T11:10:06;24.95;;;11.82;;
29352;SDS011;16344;50.364;8.944;2023-04-06T11:12:32;24.75;;;12.07;;
29352;SDS011;16344;50.364;8.944;2023-04-06T11:14:59;22.23;;;11.57;;
29352;SDS011;16344;50.364;8.944;2023-04-06T11:17:30;27.65;;;12.60;;
29352;SDS011;16344;50.364;8.944;2023-04-06T11:19:56;26.63;;;12.65;;
29352;SDS011;16344;50.364;8.944;2023-04-06T11:22:23;28.00;;;12.65;;
29352;SDS011;16344;50.364;8.944;2023-04-06T11:24:49;31.35;;;11.43;;
29352;SDS011;16344;50.364;8.944;2023-04-06T11:27:15;31.90;;;11.40;;
29352;SDS011;16344;50.364;8.944;2023-04-06T11:29:41;33.95;;;13.63;;
29352;SDS011;16344;50.364;8.944;2023-04-06T11:32:07;23.13;;;10.80;;
29352;SDS011;16344;50.364;8.944;2023-04-06T11:34:36;29.73;;;12.95;;
29352;SDS011;16344;50.364;8.944;2023-04-06T11:37:06;31.48;;;13.25;;
29352;SDS011;16344;50.364;8.944;2023-04-06T11:39:37;28.50;;;12.20;;
29352;SDS011;16344;50.364;8.944;2023-04-06T11:42:05;28.85;;;11.98;;
29352;SDS011;16344;50.364;8.944;2023-04-06T11:44:35;23.73;;;11.02;;
29352;SDS011;16344;50.364;8.944;2023-04-06T11:49:41;33.58;;;12.98;;
29352;SDS011;16344;50.364;8.944;2023-04-06T11:52:17;27.65;;;10.90;;
29352;SDS011;16344;50.364;8.944;2023-04-06T11:54:45;28.30;;;12.85;;
29352;SDS011;16344;50.364;8.944;2023-04-06T11:57:12;33.90;;;11.38;;
29352;SDS011;16344;50.364;8.944;2023-04-06T11:59:37;23.63;;;10.10;;
29352;SDS011;16344;50.364;8.944;2023-04-06T12:02:03;25.65;;;12.20;;
29352;SDS011;16344;50.364;8.944;2023-04-06T12:04:30;24.38;;;11.25;;
29352;SDS011;16344;50.364;8.944;2023-04-06T12:06:56;28.13;;;11.25;;
29352;SDS011;16344;50.364;8.944;2023-04-06T12:09:22;26.95;;;11.23;;
29352;SDS011;16344;50.364;8.944;2023-04-06T12:11:48;33.38;;;11.40;;
29352;SDS011;16344;50.364;8.944;2023-04-06T12:14:13;32.50;;;11.40;;
29352;SDS011;16344;50.364;8.944;2023-04-06T12:16:39;22.73;;;11.38;;
29352;SDS011;16344;50.364;8.944;2023-04-06T12:19:05;25.33;;;10.73;;
29352;SDS011;16344;50.364;8.944;2023-04-06T12:21:31;24.85;;;11.02;;
29352;SDS011;16344;50.364;8.944;2023-04-06T12:23:57;21.25;;;9.75;;
29352;SDS011;16344;50.364;8.944;2023-04-06T12:26:23;24.00;;;10.32;;
29352;SDS011;16344;50.364;8.944;2023-04-06T12:28:49;23.45;;;10.13;;
29352;SDS011;16344;50.364;8.944;2023-04-06T12:31:18;28.63;;;11.38;;
29352;SDS011;16344;50.364;8.944;2023-04-06T12:33:48;25.88;;;11.00;;
29352;SDS011;16344;50.364;8.944;2023-04-06T12:36:15;25.77;;;10.13;;
29352;SDS011;16344;50.364;8.944;2023-04-06T12:38:49;25.92;;;11.95;;
29352;SDS011;16344;50.364;8.944;2023-04-06T12:41:16;22.92;;;10.43;;
29352;SDS011;16344;50.364;8.944;2023-04-06T12:43:42;25.67;;;9.85;;
29352;SDS011;16344;50.364;8.944;2023-04-06T12:46:08;25.33;;;10.73;;
29352;SDS011;16344;50.364;8.944;2023-04-06T12:48:35;23.60;;;11.13;;
29352;SDS011;16344;50.364;8.944;2023-04-06T12:51:01;23.98;;;11.35;;
29352;SDS011;16344;50.364;8.944;2023-04-06T12:53:28;29.73;;;12.93;;
29352;SDS011;16344;50.364;8.944;2023-04-06T12:55:54;26.88;;;11.95;;
29352;SDS011;16344;50.364;8.944;2023-04-06T12:58:20;23.55;;;11.18;;
29352;SDS011;16344;50.364;8.944;2023-04-06T13:00:47;24.58;;;10.55;;
29352;SDS011;16344;50.364;8.944;2023-04-06T13:03:13;25.50;;;11.50;;
29352;SDS011;16344;50.364;8.944;2023-04-06T13:05:46;26.77;;;11.05;;
29352;SDS011;16344;50.364;8.944;2023-04-06T13:08:12;25.35;;;11.68;;
29352;SDS011;16344;50.364;8.944;2023-04-06T13:10:49;32.90;;;11.43;;
29352;SDS011;16344;50.364;8.944;2023-04-06T13:13:17;28.92;;;10.43;;
29352;SDS011;16344;50.364;8.944;2023-04-06T13:15:47;26.25;;;11.30;;
29352;SDS011;16344;50.364;8.944;2023-04-06T13:18:12;29.90;;;11.60;;
29352;SDS011;16344;50.364;8.944;2023-04-06T13:20:38;26.30;;;11.38;;
29352;SDS011;16344;50.364;8.944;2023-04-06T13:23:03;28.30;;;11.98;;
29352;SDS011;16344;50.364;8.944;2023-04-06T13:25:29;35.72;;;11.90;;
29352;SDS011;16344;50.364;8.944;2023-04-06T13:27:54;30.13;;;11.93;;
29352;SDS011;16344;50.364;8.944;2023-04-06T13:30:20;31.33;;;11.57;;
29352;SDS011;16344;50.364;8.944;2023-04-06T13:32:46;27.73;;;11.48;;
29352;SDS011;16344;50.364;8.944;2023-04-06T13:35:11;31.75;;;11.60;;
29352;SDS011;16344;50.364;8.944;2023-04-06T13:37:37;23.20;;;11.75;;
29352;SDS011;16344;50.364;8.944;2023-04-06T13:40:03;25.95;;;11.30;;
29352;SDS011;16344;50.364;8.944;2023-04-06T13:42:32;26.13;;;11.15;;
29352;SDS011;16344;50.364;8.944;2023-04-06T13:44:59;21.10;;;10.23;;
29352;SDS011;16344;50.364;8.944;2023-04-06T13:47:25;25.60;;;11.32;;
29352;SDS011;16344;50.364;8.944;2023-04-06T13:49:51;21.20;;;9.77;;
29352;SDS011;16344;50.364;8.944;2023-04-06T13:52:17;27.70;;;9.77;;
29352;SDS011;16344;50.364;8.944;2023-04-06T13:54:43;26.13;;;11.07;;
29352;SDS011;16344;50.364;8.944;2023-04-06T13:57:09;24.73;;;11.57;;
29352;SDS011;16344;50.364;8.944;2023-04-06T13:59:35;28.70;;;12.63;;
29352;SDS011;16344;50.364;8.944;2023-04-06T14:02:04;23.10;;;11.07;;
29352;SDS011;16344;50.364;8.944;2023-04-06T14:04:31;32.20;;;11.27;;
29352;SDS011;16344;50.364;8.944;2023-04-06T14:06:58;29.08;;;10.65;;
29352;SDS011;16344;50.364;8.944;2023-04-06T14:09:24;30.00;;;11.32;;
29352;SDS011;16344;50.364;8.944;2023-04-06T14:11:50;23.63;;;11.13;;
29352;SDS011;16344;50.364;8.944;2023-04-06T14:14:15;24.83;;;9.60;;
29352;SDS011;16344;50.364;8.944;2023-04-06T14:16:42;26.85;;;10.48;;
29352;SDS011;16344;50.364;8.944;2023-04-06T14:19:12;25.73;;;10.30;;
29352;SDS011;16344;50.364;8.944;2023-04-06T14:21:39;25.10;;;10.65;;
29352;SDS011;16344;50.364;8.944;2023-04-06T14:24:08;26.95;;;10.98;;
29352;SDS011;16344;50.364;8.944;2023-04-06T14:26:37;21.92;;;10.07;;
29352;SDS011;16344;50.364;8.944;2023-04-06T14:29:03;19.05;;;10.63;;
29352;SDS011;16344;50.364;8.944;2023-04-06T14:31:29;26.25;;;11.35;;
29352;SDS011;16344;50.364;8.944;2023-04-06T14:33:55;23.25;;;10.85;;
29352;SDS011;16344;50.364;8.944;2023-04-06T14:36:21;23.65;;;10.52;;
29352;SDS011;16344;50.364;8.944;2023-04-06T14:38:47;25.15;;;10.45;;